sensor_id;sensor_type;location;lat;lon;timestamp;pressure;altitude;pressure_sealevel;temperature;humidity
57374;BME280;43964;53.890;25.340;2023-04-21T00:01:11;1027.6;;;10.4;36.9
57374;BME280;43964;53.890;25.340;2023-04-21T00:06:51;1027.6;;;10.4;37
57374;BME280;43964;53.890;25.340;2023-04-21T00:11:45;1027.5;;;10.3;37.2
57374;BME280;43964;53.890;25.340;2023-04-21T00:16:23;1027.5;;;10.2;37.5
57374;BME280;43964;53.890;25.340;2023-04-21T00:21:27;1027.5;;;10.1;37.6
57374;BME280;43964;53.890;25.340;2023-04-21T00:26:51;1027.5;;;10;38
57374;BME280;43964;53.890;25.340;2023-04-21T00:31:11;1027.4;;;10;38.3
57374;BME280;43964;53.890;25.340;2023-04-21T00:36:41;1027.5;;;10;38.3
57374;BME280;43964;53.890;25.340;2023-04-21T00:41:51;1027.5;;;10;38.2
57374;BME280;43964;53.890;25.340;2023-04-21T00:46:11;1027.4;;;9.9;38.4
57374;BME280;43964;53.890;25.340;2023-04-21T00:51:11;1027.4;;;9.9;38.4
57374;BME280;43964;53.890;25.340;2023-04-21T00:56:11;1027.4;;;9.8;38.4
57374;BME280;43964;53.890;25.340;2023-04-21T01:01:39;1027.3;;;9.8;38.5
57374;BME280;43964;53.890;25.340;2023-04-21T01:06:43;1027.3;;;9.7;38.6
57374;BME280;43964;53.890;25.340;2023-04-21T01:11:35;1027.3;;;9.7;38.7
57374;BME280;43964;53.890;25.340;2023-04-21T01:16:21;1027.3;;;9.6;39
57374;BME280;43964;53.890;25.340;2023-04-21T01:21:39;1027.3;;;9.6;39.2
57374;BME280;43964;53.890;25.340;2023-04-21T01:26:49;1027.3;;;9.6;39.3
57374;BME280;43964;53.890;25.340;2023-04-21T01:31:23;1027.2;;;9.5;39.5
57374;BME280;43964;53.890;25.340;2023-04-21T01:36:11;1027.2;;;9.5;39.6
57374;BME280;43964;53.890;25.340;2023-04-21T01:41:23;1027.2;;;9.4;39.5
57374;BME280;43964;53.890;25.340;2023-04-21T01:46:41;1027.2;;;9.4;39.5
57374;BME280;43964;53.890;25.340;2023-04-21T01:51:31;1027.2;;;9.3;39.8
57374;BME280;43964;53.890;25.340;2023-04-21T01:56:15;1027.2;;;9.3;39.7
57374;BME280;43964;53.890;25.340;2023-04-21T02:01:49;1027.1;;;9.3;39.7
57374;BME280;43964;53.890;25.340;2023-04-21T02:06:35;1027.1;;;9.3;39.7
57374;BME280;43964;53.890;25.340;2023-04-21T02:11:11;1027.1;;;9.3;39.7
57374;BME280;43964;53.890;25.340;2023-04-21T02:16:25;1027.1;;;9.3;39.8
57374;BME280;43964;53.890;25.340;2023-04-21T02:21:51;1027;;;9.2;40
57374;BME280;43964;53.890;25.340;2023-04-21T02:26:33;1027;;;9.2;40.2
57374;BME280;43964;53.890;25.340;2023-04-21T02:31:51;1027;;;9.1;40.4
57374;BME280;43964;53.890;25.340;2023-04-21T02:36:49;1027;;;9.1;40.6
57374;BME280;43964;53.890;25.340;2023-04-21T02:41:23;1027;;;9;40.8
57374;BME280;43964;53.890;25.340;2023-04-21T02:46:19;1027;;;9;40.7
57374;BME280;43964;53.890;25.340;2023-04-21T02:51:41;1027;;;8.9;40.7
57374;BME280;43964;53.890;25.340;2023-04-21T02:56:37;1027;;;8.9;40.7
57374;BME280;43964;53.890;25.340;2023-04-21T03:01:45;1027;;;8.9;40.7
57374;BME280;43964;53.890;25.340;2023-04-21T03:06:23;1027;;;8.8;40.8
57374;BME280;43964;53.890;25.340;2023-04-21T03:11:51;1027;;;8.8;40.9
57374;BME280;43964;53.890;25.340;2023-04-21T03:16:37;1027;;;9;40.8
57374;BME280;43964;53.890;25.340;2023-04-21T03:21:23;1027;;;9.1;40.7
57374;BME280;43964;53.890;25.340;2023-04-21T03:26:27;1027;;;9.3;40.4
57374;BME280;43964;53.890;25.340;2023-04-21T03:31:51;1026.9;;;11;38.7
57374;BME280;43964;53.890;25.340;2023-04-21T03:36:51;1026.9;;;12.8;36.6
57374;BME280;43964;53.890;25.340;2023-04-21T03:41:41;1026.8;;;14.6;34.6
57374;BME280;43964;53.890;25.340;2023-04-21T04:16:51;1026.9;;;23.4;24.9
57374;BME280;43964;53.890;25.340;2023-04-21T04:21:23;1026.8;;;24;22.3
57374;BME280;43964;53.890;25.340;2023-04-21T04:26:37;1026.8;;;25.3;21.4
57374;BME280;43964;53.890;25.340;2023-04-21T04:36:37;1026.9;;;27.1;18.9
57374;BME280;43964;53.890;25.340;2023-04-21T04:41:11;1026.9;;;27.8;19.3
57374;BME280;43964;53.890;25.340;2023-04-21T04:46:43;1026.8;;;28.9;18.7
57374;BME280;43964;53.890;25.340;2023-04-21T04:56:51;1026.9;;;31.7;16.9
57374;BME280;43964;53.890;25.340;2023-04-21T05:01:17;1026.9;;;31.4;16.6
57374;BME280;43964;53.890;25.340;2023-04-21T05:06:53;1026.9;;;31.1;16.3
57374;BME280;43964;53.890;25.340;2023-04-21T05:11:45;1027;;;26.8;18.9
57374;BME280;43964;53.890;25.340;2023-04-21T05:16:41;1027.1;;;23.1;20.3
57374;BME280;43964;53.890;25.340;2023-04-21T05:21:25;1027.1;;;21.4;21.3
57374;BME280;43964;53.890;25.340;2023-04-21T05:26:41;1027.1;;;19.9;22.1
57374;BME280;43964;53.890;25.340;2023-04-21T05:31:33;1027.2;;;18.4;23
57374;BME280;43964;53.890;25.340;2023-04-21T05:36:51;1027.2;;;17.4;23.8
57374;BME280;43964;53.890;25.340;2023-04-21T05:41:49;1027.2;;;17;24.4
57374;BME280;43964;53.890;25.340;2023-04-21T05:46:11;1027.2;;;16.7;24.8
57374;BME280;43964;53.890;25.340;2023-04-21T05:51:12;1027.3;;;16.7;25.2
57374;BME280;43964;53.890;25.340;2023-04-21T05:56:31;1027.2;;;16.8;25.9
57374;BME280;43964;53.890;25.340;2023-04-21T06:01:37;1027.2;;;17;25.6
57374;BME280;43964;53.890;25.340;2023-04-21T06:06:43;1027.1;;;17.3;26
57374;BME280;43964;53.890;25.340;2023-04-21T06:11:51;1027.1;;;17.8;26.3
57374;BME280;43964;53.890;25.340;2023-04-21T06:16:39;1027.2;;;17.9;25.9
57374;BME280;43964;53.890;25.340;2023-04-21T06:21:35;1027.1;;;17.8;25.8
57374;BME280;43964;53.890;25.340;2023-04-21T06:26:49;1027.2;;;18;25.5
57374;BME280;43964;53.890;25.340;2023-04-21T06:31:11;1027.2;;;18;25.4
57374;BME280;43964;53.890;25.340;2023-04-21T06:36:35;1027.2;;;18.1;25.4
57374;BME280;43964;53.890;25.340;2023-04-21T06:41:21;1027.1;;;18.2;25.5
57374;BME280;43964;53.890;25.340;2023-04-21T06:46:45;1027.1;;;18.3;25.4
57374;BME280;43964;53.890;25.340;2023-04-21T06:51:29;1027.1;;;18.6;25.2
57374;BME280;43964;53.890;25.340;2023-04-21T06:56:19;1027.1;;;18.5;25.2
57374;BME280;43964;53.890;25.340;2023-04-21T07:01:51;1027.1;;;18.5;25.1
57374;BME280;43964;53.890;25.340;2023-04-21T07:06:11;1027.1;;;18.6;25.2
57374;BME280;43964;53.890;25.340;2023-04-21T07:11:27;1027;;;18.8;25.1
57374;BME280;43964;53.890;25.340;2023-04-21T07:16:25;1027.1;;;18.8;25
57374;BME280;43964;53.890;25.340;2023-04-21T07:21:49;1026.9;;;18.8;24.6
57374;BME280;43964;53.890;25.340;2023-04-21T07:26:43;1026.9;;;18.8;24.5
57374;BME280;43964;53.890;25.340;2023-04-21T07:31:49;1026.9;;;18.9;24
57374;BME280;43964;53.890;25.340;2023-04-21T07:36:50;1026.9;;;18.7;23.5
57374;BME280;43964;53.890;25.340;2023-04-21T07:41:11;1026.9;;;18.4;23.4
57374;BME280;43964;53.890;25.340;2023-04-21T07:46:11;1026.8;;;18.3;23.6
57374;BME280;43964;53.890;25.340;2023-04-21T07:51:39;1026.8;;;18.4;23.7
57374;BME280;43964;53.890;25.340;2023-04-21T07:56:35;1026.8;;;18.4;23.8
57374;BME280;43964;53.890;25.340;2023-04-21T08:01:35;1026.9;;;18.4;23.8
57374;BME280;43964;53.890;25.340;2023-04-21T08:06:19;1026.8;;;18.5;23.8
57374;BME280;43964;53.890;25.340;2023-04-21T08:11:49;1026.9;;;18.4;23.9
57374;BME280;43964;53.890;25.340;2023-04-21T08:16:31;1026.9;;;18.4;24.1
57374;BME280;43964;53.890;25.340;2023-04-21T08:21:11;1026.8;;;18.4;24.3
57374;BME280;43964;53.890;25.340;2023-04-21T08:26:21;1026.8;;;18.5;24.3
57374;BME280;43964;53.890;25.340;2023-04-21T08:31:53;1026.7;;;18.6;24.5
57374;BME280;43964;53.890;25.340;2023-04-21T08:36:33;1026.7;;;18.7;24.6
57374;BME280;43964;53.890;25.340;2023-04-21T08:41:41;1026.6;;;18.7;24.6
57374;BME280;43964;53.890;25.340;2023-04-21T08:46:41;1026.6;;;18.8;24.7
57374;BME280;43964;53.890;25.340;2023-04-21T08:51:39;1026.6;;;18.8;24.8
57374;BME280;43964;53.890;25.340;2023-04-21T08:56:39;1026.5;;;18.9;24.6
57374;BME280;43964;53.890;25.340;2023-04-21T09:02:04;1026.5;;;19.3;24.6
57374;BME280;43964;53.890;25.340;2023-04-21T09:06:11;1026.5;;;19.3;24.5
57374;BME280;43964;53.890;25.340;2023-04-21T09:11:53;1026.4;;;19.3;24.5
57374;BME280;43964;53.890;25.340;2023-04-21T09:16:35;1026.4;;;19.1;24.6
57374;BME280;43964;53.890;25.340;2023-04-21T09:21:13;1026.3;;;19;24.7
57374;BME280;43964;53.890;25.340;2023-04-21T09:26:35;1026.2;;;19.2;24.7
57374;BME280;43964;53.890;25.340;2023-04-21T09:31:57;1026.2;;;19.1;24.7
57374;BME280;43964;53.890;25.340;2023-04-21T09:36:16;1026.1;;;19.2;24.8
57374;BME280;43964;53.890;25.340;2023-04-21T09:41:43;1026.1;;;19.5;24.7
57374;BME280;43964;53.890;25.340;2023-04-21T09:46:21;1026.1;;;19.3;24.6
57374;BME280;43964;53.890;25.340;2023-04-21T09:51:55;1026;;;19.3;24.6
57374;BME280;43964;53.890;25.340;2023-04-21T09:56:33;1026;;;19.5;24.7
57374;BME280;43964;53.890;25.340;2023-04-21T10:01:17;1025.8;;;19.8;24.8
57374;BME280;43964;53.890;25.340;2023-04-21T10:06:57;1025.9;;;19.9;24.7
57374;BME280;43964;53.890;25.340;2023-04-21T10:11:35;1025.8;;;19.9;24.7
57374;BME280;43964;53.890;25.340;2023-04-21T10:16:31;1025.8;;;19.8;24.6
57374;BME280;43964;53.890;25.340;2023-04-21T10:21:54;1025.5;;;19.8;24.5
57374;BME280;43964;53.890;25.340;2023-04-21T10:26:59;1025.6;;;19.8;24.5
57374;BME280;43964;53.890;25.340;2023-04-21T10:31:19;1025.5;;;19.8;24.7
57374;BME280;43964;53.890;25.340;2023-04-21T10:37:08;1025.3;;;19.9;24.9
57374;BME280;43964;53.890;25.340;2023-04-21T10:42:17;1025.3;;;20.1;24.9
57374;BME280;43964;53.890;25.340;2023-04-21T10:46:31;1025.3;;;19.9;24.7
57374;BME280;43964;53.890;25.340;2023-04-21T10:51:23;1025.2;;;20.3;24.9
57374;BME280;43964;53.890;25.340;2023-04-21T10:56:37;1025.2;;;20.5;24.9
57374;BME280;43964;53.890;25.340;2023-04-21T11:01:45;1025.1;;;20.6;25.1
57374;BME280;43964;53.890;25.340;2023-04-21T11:06:35;1025.1;;;20.7;25.2
57374;BME280;43964;53.890;25.340;2023-04-21T11:11:23;1025;;;20.6;25.2
57374;BME280;43964;53.890;25.340;2023-04-21T11:16:57;1024.9;;;20.5;25.2
57374;BME280;43964;53.890;25.340;2023-04-21T11:21:35;1024.8;;;20.6;25.4
57374;BME280;43964;53.890;25.340;2023-04-21T11:26:11;1024.7;;;20.9;25.2
57374;BME280;43964;53.890;25.340;2023-04-21T11:31:55;1024.7;;;20.8;24.9
57374;BME280;43964;53.890;25.340;2023-04-21T11:36:57;1024.6;;;20.6;24.9
57374;BME280;43964;53.890;25.340;2023-04-21T11:41:11;1024.5;;;20.8;25
57374;BME280;43964;53.890;25.340;2023-04-21T11:46:43;1024.4;;;21.4;25
57374;BME280;43964;53.890;25.340;2023-04-21T11:51:14;1024.3;;;21.7;24.8
57374;BME280;43964;53.890;25.340;2023-04-21T11:56:21;1024.3;;;21.9;24.8
57374;BME280;43964;53.890;25.340;2023-04-21T12:01:43;1024.3;;;22.1;24.6
57374;BME280;43964;53.890;25.340;2023-04-21T12:06:36;1024.2;;;21.8;24.6
57374;BME280;43964;53.890;25.340;2023-04-21T12:11:11;1024.3;;;21.5;24.4
57374;BME280;43964;53.890;25.340;2023-04-21T12:16:13;1024.2;;;21.2;24.6
57374;BME280;43964;53.890;25.340;2023-04-21T12:21:57;1024.2;;;21.1;24.8
57374;BME280;43964;53.890;25.340;2023-04-21T12:26:21;1024.2;;;20.8;24.9
57374;BME280;43964;53.890;25.340;2023-04-21T12:31:43;1024.1;;;20.6;25
57374;BME280;43964;53.890;25.340;2023-04-21T12:36:47;1024;;;20.6;25
57374;BME280;43964;53.890;25.340;2023-04-21T12:41:43;1023.8;;;20.8;25
57374;BME280;43964;53.890;25.340;2023-04-21T12:46:23;1023.9;;;20.8;24.9
57374;BME280;43964;53.890;25.340;2023-04-21T12:51:57;1023.9;;;20.7;24.9
57374;BME280;43964;53.890;25.340;2023-04-21T12:56:51;1023.7;;;21.1;24.9
57374;BME280;43964;53.890;25.340;2023-04-21T13:01:57;1023.7;;;21.5;24.7
57374;BME280;43964;53.890;25.340;2023-04-21T13:06:23;1023.7;;;21.3;24.8
57374;BME280;43964;53.890;25.340;2023-04-21T13:11:57;1023.6;;;21.5;24.9
57374;BME280;43964;53.890;25.340;2023-04-21T13:16:35;1023.6;;;21.5;24.9
57374;BME280;43964;53.890;25.340;2023-04-21T13:21:23;1023.5;;;21.3;24.8
57374;BME280;43964;53.890;25.340;2023-04-21T13:26:11;1023.6;;;21.1;24.9
57374;BME280;43964;53.890;25.340;2023-04-21T13:31:59;1023.6;;;21;24.9
57374;BME280;43964;53.890;25.340;2023-04-21T13:36:23;1023.5;;;20.8;25
57374;BME280;43964;53.890;25.340;2023-04-21T13:41:59;1023.4;;;20.7;25.1
57374;BME280;43964;53.890;25.340;2023-04-21T13:46:57;1023.3;;;20.5;25.3
57374;BME280;43964;53.890;25.340;2023-04-21T13:51:34;1023.3;;;20.4;25.5
57374;BME280;43964;53.890;25.340;2023-04-21T13:56:35;1023.3;;;20.2;25.6
57374;BME280;43964;53.890;25.340;2023-04-21T14:01:43;1023.3;;;20.2;25.8
57374;BME280;43964;53.890;25.340;2023-04-21T14:06:31;1023.3;;;20;25.7
57374;BME280;43964;53.890;25.340;2023-04-21T14:11:49;1023.3;;;19.9;25.8
57374;BME280;43964;53.890;25.340;2023-04-21T14:16:33;1023.2;;;19.8;26.1
57374;BME280;43964;53.890;25.340;2023-04-21T14:21:57;1023.2;;;19.8;26
57374;BME280;43964;53.890;25.340;2023-04-21T14:26:45;1023.1;;;19.6;26.2
57374;BME280;43964;53.890;25.340;2023-04-21T14:31:11;1023.1;;;19.6;26.4
57374;BME280;43964;53.890;25.340;2023-04-21T14:36:43;1023;;;19.5;26.1
57374;BME280;43964;53.890;25.340;2023-04-21T14:41:59;1023;;;19.6;26.2
57374;BME280;43964;53.890;25.340;2023-04-21T14:46:35;1023;;;19.6;26.3
57374;BME280;43964;53.890;25.340;2023-04-21T14:51:45;1023;;;19.6;26.5
57374;BME280;43964;53.890;25.340;2023-04-21T14:56:43;1023;;;19.6;26.5
57374;BME280;43964;53.890;25.340;2023-04-21T15:01:35;1022.9;;;19.4;26.6
57374;BME280;43964;53.890;25.340;2023-04-21T15:06:33;1022.9;;;19.4;26.6
57374;BME280;43964;53.890;25.340;2023-04-21T15:11:11;1022.9;;;19.4;26.7
57374;BME280;43964;53.890;25.340;2023-04-21T15:16:11;1022.8;;;19.2;26.8
57374;BME280;43964;53.890;25.340;2023-04-21T15:21:49;1022.7;;;19.1;26.9
57374;BME280;43964;53.890;25.340;2023-04-21T15:26:59;1022.7;;;18.9;27.1
57374;BME280;43964;53.890;25.340;2023-04-21T15:31:11;1022.7;;;18.8;27.3
57374;BME280;43964;53.890;25.340;2023-04-21T15:36:45;1022.7;;;18.7;27.4
57374;BME280;43964;53.890;25.340;2023-04-21T15:41:47;1022.7;;;18.5;27.6
57374;BME280;43964;53.890;25.340;2023-04-21T15:46:41;1022.7;;;18.4;27.7
57374;BME280;43964;53.890;25.340;2023-04-21T15:51:11;1022.7;;;18.3;27.8
57374;BME280;43964;53.890;25.340;2023-04-21T15:56:43;1022.7;;;18.2;27.9
57374;BME280;43964;53.890;25.340;2023-04-21T16:01:57;1022.7;;;18.1;28.1
57374;BME280;43964;53.890;25.340;2023-04-21T16:06:57;1022.6;;;18;28.3
57374;BME280;43964;53.890;25.340;2023-04-21T16:11:11;1022.6;;;18;28.5
57374;BME280;43964;53.890;25.340;2023-04-21T16:16:57;1022.6;;;17.9;28.9
57374;BME280;43964;53.890;25.340;2023-04-21T16:21:49;1022.6;;;17.9;29
57374;BME280;43964;53.890;25.340;2023-04-21T16:26:11;1022.6;;;17.8;29.1
57374;BME280;43964;53.890;25.340;2023-04-21T16:31:11;1022.5;;;17.8;29.2
57374;BME280;43964;53.890;25.340;2023-04-21T16:51:57;1022.6;;;17.8;29.1
57374;BME280;43964;53.890;25.340;2023-04-21T16:56:11;1022.5;;;17.7;29.8
57374;BME280;43964;53.890;25.340;2023-04-21T17:01:35;1022.5;;;17.6;30.1
57374;BME280;43964;53.890;25.340;2023-04-21T17:06:23;1022.5;;;17.4;30.4
57374;BME280;43964;53.890;25.340;2023-04-21T17:11:11;1022.5;;;17.4;30.7
57374;BME280;43964;53.890;25.340;2023-04-21T17:16:49;1022.5;;;17.4;30.8
57374;BME280;43964;53.890;25.340;2023-04-21T17:21:35;1022.5;;;17.4;30.9
57374;BME280;43964;53.890;25.340;2023-04-21T17:26:11;1022.5;;;17.4;31.1
57374;BME280;43964;53.890;25.340;2023-04-21T17:31:45;1022.5;;;17.4;31.2
57374;BME280;43964;53.890;25.340;2023-04-21T17:36:59;1022.5;;;17.2;31.8
57374;BME280;43964;53.890;25.340;2023-04-21T17:41:19;1022.5;;;17;31.7
57374;BME280;43964;53.890;25.340;2023-04-21T17:46:57;1022.5;;;16.9;32.1
57374;BME280;43964;53.890;25.340;2023-04-21T17:51:11;1022.5;;;16.8;32.3
57374;BME280;43964;53.890;25.340;2023-04-21T17:56:43;1022.6;;;16.8;32.4
57374;BME280;43964;53.890;25.340;2023-04-21T18:01:31;1022.5;;;16.8;32.4
57374;BME280;43964;53.890;25.340;2023-04-21T18:06:11;1022.5;;;16.7;32.5
57374;BME280;43964;53.890;25.340;2023-04-21T18:11:43;1022.5;;;16.7;32.8
57374;BME280;43964;53.890;25.340;2023-04-21T18:16:35;1022.5;;;16.6;32.9
57374;BME280;43964;53.890;25.340;2023-04-21T18:21:11;1022.5;;;16.6;33.1
57374;BME280;43964;53.890;25.340;2023-04-21T18:26:49;1022.5;;;16.6;33.2
57374;BME280;43964;53.890;25.340;2023-04-21T18:31:59;1022.5;;;16.7;33
57374;BME280;43964;53.890;25.340;2023-04-21T18:36:11;1022.4;;;16.6;33.2
57374;BME280;43964;53.890;25.340;2023-04-21T18:41:59;1022.4;;;16.6;33.3
57374;BME280;43964;53.890;25.340;2023-04-21T18:46:25;1022.4;;;16.6;33.4
57374;BME280;43964;53.890;25.340;2023-04-21T18:51:43;1022.4;;;16.5;33.4
57374;BME280;43964;53.890;25.340;2023-04-21T18:56:11;1022.4;;;16.5;33.5
57374;BME280;43964;53.890;25.340;2023-04-21T19:01:13;1022.4;;;16.4;33.5
57374;BME280;43964;53.890;25.340;2023-04-21T19:06:57;1022.3;;;16.3;33.8
57374;BME280;43964;53.890;25.340;2023-04-21T19:11:57;1022.3;;;16.3;34
57374;BME280;43964;53.890;25.340;2023-04-21T19:16:43;1022.3;;;16.1;34.2
57374;BME280;43964;53.890;25.340;2023-04-21T19:21:57;1022.3;;;16;34.4
57374;BME280;43964;53.890;25.340;2023-04-21T19:26:13;1022.3;;;16;34.5
57374;BME280;43964;53.890;25.340;2023-04-21T19:31:24;1022.3;;;15.9;34.7
57374;BME280;43964;53.890;25.340;2023-04-21T19:36:31;1022.3;;;15.9;34.7
57374;BME280;43964;53.890;25.340;2023-04-21T19:41:57;1022.2;;;15.9;34.7
57374;BME280;43964;53.890;25.340;2023-04-21T19:46:35;1022.2;;;15.9;34.9
57374;BME280;43964;53.890;25.340;2023-04-21T19:51:43;1022.2;;;15.8;35
57374;BME280;43964;53.890;25.340;2023-04-21T19:56:43;1022.2;;;15.8;35.1
57374;BME280;43964;53.890;25.340;2023-04-21T20:01:32;1022.2;;;15.8;35.4
57374;BME280;43964;53.890;25.340;2023-04-21T20:06:21;1022.1;;;15.7;35.6
57374;BME280;43964;53.890;25.340;2023-04-21T20:11:23;1022.1;;;15.6;35.6
57374;BME280;43964;53.890;25.340;2023-04-21T20:16:24;1022.1;;;15.6;35.5
57374;BME280;43964;53.890;25.340;2023-04-21T20:21:45;1022.1;;;15.5;35.6
57374;BME280;43964;53.890;25.340;2023-04-21T20:26:31;1022.1;;;15.3;35.7
57374;BME280;43964;53.890;25.340;2023-04-21T20:31:11;1022.1;;;15.3;35.9
57374;BME280;43964;53.890;25.340;2023-04-21T20:36:41;1022.1;;;15.3;36.1
57374;BME280;43964;53.890;25.340;2023-04-21T20:41:55;1022.1;;;15.3;36.2
57374;BME280;43964;53.890;25.340;2023-04-21T20:46:31;1022.1;;;15.2;36.1
57374;BME280;43964;53.890;25.340;2023-04-21T20:51:23;1022.1;;;15;36.3
57374;BME280;43964;53.890;25.340;2023-04-21T20:56:11;1022.1;;;15;36.5
57374;BME280;43964;53.890;25.340;2023-04-21T21:01:55;1022.1;;;15;36.8
57374;BME280;43964;53.890;25.340;2023-04-21T21:06:11;1022.1;;;14.9;37.2
57374;BME280;43964;53.890;25.340;2023-04-21T21:11:17;1022;;;14.8;37.3
57374;BME280;43964;53.890;25.340;2023-04-21T21:16:55;1022;;;14.8;37.4
57374;BME280;43964;53.890;25.340;2023-04-21T21:21:35;1022;;;14.7;37.6
57374;BME280;43964;53.890;25.340;2023-04-21T21:26:19;1022;;;14.5;37.5
57374;BME280;43964;53.890;25.340;2023-04-21T21:31:31;1022;;;14.5;37.5
57374;BME280;43964;53.890;25.340;2023-04-21T21:36:55;1022;;;14.5;37.6
57374;BME280;43964;53.890;25.340;2023-04-21T21:41:23;1022.1;;;14.5;37.6
57374;BME280;43964;53.890;25.340;2023-04-21T21:46:39;1022;;;14.5;37.9
57374;BME280;43964;53.890;25.340;2023-04-21T21:51:55;1022;;;14.4;38.4
57374;BME280;43964;53.890;25.340;2023-04-21T21:56:21;1022;;;14.3;38.8
57374;BME280;43964;53.890;25.340;2023-04-21T22:01:33;1022;;;14.1;38.9
57374;BME280;43964;53.890;25.340;2023-04-21T22:06:43;1022;;;13.9;38.5
57374;BME280;43964;53.890;25.340;2023-04-21T22:11:41;1022;;;13.6;39.1
57374;BME280;43964;53.890;25.340;2023-04-21T22:16:47;1022;;;13.5;39.4
57374;BME280;43964;53.890;25.340;2023-04-21T22:21:35;1021.9;;;13.3;39.9
57374;BME280;43964;53.890;25.340;2023-04-21T22:26:47;1021.9;;;13.2;40
57374;BME280;43964;53.890;25.340;2023-04-21T22:31:55;1021.9;;;13.1;40.2
57374;BME280;43964;53.890;25.340;2023-04-21T22:36:23;1022;;;13.1;40.3
57374;BME280;43964;53.890;25.340;2023-04-21T22:41:43;1022;;;13;40.3
57374;BME280;43964;53.890;25.340;2023-04-21T22:46:55;1021.9;;;12.9;41.1
57374;BME280;43964;53.890;25.340;2023-04-21T22:51:21;1021.9;;;12.7;41.8
57374;BME280;43964;53.890;25.340;2023-04-21T22:56:35;1022;;;12.6;41.8
57374;BME280;43964;53.890;25.340;2023-04-21T23:01:41;1021.9;;;12.5;41.8
57374;BME280;43964;53.890;25.340;2023-04-21T23:06:11;1021.9;;;12.4;42
57374;BME280;43964;53.890;25.340;2023-04-21T23:11:41;1021.9;;;12.2;42.4
57374;BME280;43964;53.890;25.340;2023-04-21T23:16:23;1022;;;12;42.6
57374;BME280;43964;53.890;25.340;2023-04-21T23:21:11;1021.9;;;11.9;42.8
57374;BME280;43964;53.890;25.340;2023-04-21T23:26:47;1021.9;;;11.9;43.1
57374;BME280;43964;53.890;25.340;2023-04-21T23:31:55;1021.9;;;11.9;43.7
57374;BME280;43964;53.890;25.340;2023-04-21T23:36:35;1021.9;;;11.9;44
57374;BME280;43964;53.890;25.340;2023-04-21T23:41:41;1021.9;;;11.9;44.1
57374;BME280;43964;53.890;25.340;2023-04-21T23:46:47;1021.9;;;11.9;43.5
57374;BME280;43964;53.890;25.340;2023-04-21T23:51:43;1021.9;;;11.8;43.6
57374;BME280;43964;53.890;25.340;2023-04-21T23:56:21;1021.9;;;11.8;43.8
